Time;durP1;ratioP1;P1;durP2;ratioP2;P2;SDS_P1;SDS_P2;PMS_P1;PMS_P2;Temp;Humidity;BMP_temperature;BMP_pressure;BME280_temperature;BME280_humidity;BME280_pressure;Samples;Min_cycle;Max_cycle;Signal;HPM_P1;HPM_P2
2022/05/21 00:02:04;;;;;;;11.98;8.65;;;;;;;10.34;90.73;101803.59;5016363;28;20034;-89
2022/05/21 00:04:30;;;;;;;10.27;7.68;;;;;;;10.34;90.83;101809.78;5012885;28;20053;-90
2022/05/21 00:06:57;;;;;;;13.57;7.32;;;;;;;10.41;90.01;101802.47;5012682;28;20073;-89
2022/05/21 00:09:23;;;;;;;9.90;7.07;;;;;;;10.41;90.09;101803.31;5013136;28;20030;-92
2022/05/21 00:11:48;;;;;;;9.98;6.53;;;;;;;10.41;89.59;101805.13;5002631;28;20041;-91
2022/05/21 00:14:14;;;;;;;8.75;6.55;;;;;;;10.38;89.72;101799.91;5012569;28;20140;-92
2022/05/21 00:16:40;;;;;;;10.98;6.40;;;;;;;10.39;89.68;101809.63;5007504;28;20027;-93
2022/05/21 00:19:05;;;;;;;11.70;5.95;;;;;;;10.32;89.63;101800.97;5001312;28;20032;-92
2022/05/21 00:21:31;;;;;;;9.18;5.63;;;;;;;10.35;89.64;101813.31;5004930;28;20538;-92
2022/05/21 00:23:56;;;;;;;9.38;6.07;;;;;;;10.36;89.60;101799.94;5006407;28;20426;-92
2022/05/21 00:26:21;;;;;;;8.55;5.53;;;;;;;10.37;89.49;101809.69;5009649;28;20038;-89
2022/05/21 00:28:49;;;;;;;8.23;5.47;;;;;;;10.35;89.49;101814.16;5006219;28;20407;-92
2022/05/21 00:31:16;;;;;;;8.98;5.53;;;;;;;10.36;89.54;101813.25;5001724;28;20084;-91
2022/05/21 00:33:43;;;;;;;9.50;5.53;;;;;;;10.35;89.58;101807.97;4996532;28;20034;-92
2022/05/21 00:36:08;;;;;;;10.32;5.53;;;;;;;10.32;89.59;101814.25;5004777;28;20407;-92
2022/05/21 00:38:34;;;;;;;10.05;5.28;;;;;;;10.29;89.64;101806.41;5000684;28;20045;-93
2022/05/21 00:41:01;;;;;;;6.93;4.82;;;;;;;10.29;89.59;101809.06;5008582;28;20026;-93
2022/05/21 00:43:46;;;;;;;8.60;5.07;;;;;;;10.28;89.56;101803.78;5008150;28;20049;-94
2022/05/21 00:46:16;;;;;;;6.20;4.50;;;;;;;10.26;89.35;101809.16;5004667;28;20033;-92
2022/05/21 00:48:43;;;;;;;8.90;4.50;;;;;;;10.22;89.29;101804.84;5004315;28;20076;-93
2022/05/21 00:51:20;;;;;;;8.10;4.57;;;;;;;10.23;89.83;101801.25;5008518;28;20537;-91
2022/05/21 00:53:47;;;;;;;8.85;4.18;;;;;;;10.21;89.64;101805.78;4998747;28;20109;-92
2022/05/21 00:56:14;;;;;;;8.70;4.05;;;;;;;10.13;89.93;101802.50;5003542;28;20036;-91
2022/05/21 01:01:30;;;;;;;7.30;3.85;;;;;;;10.14;90.61;101818.41;5005928;28;20100;-91
2022/05/21 01:03:55;;;;;;;6.28;3.67;;;;;;;10.25;90.40;101812.75;5007317;28;20026;-92
2022/05/21 01:06:20;;;;;;;6.63;3.50;;;;;;;10.33;89.88;101805.38;4999023;28;20031;-92
2022/05/21 01:08:46;;;;;;;6.78;3.70;;;;;;;10.44;89.53;101813.84;5005904;28;20345;-91
2022/05/21 01:11:14;;;;;;;6.38;3.75;;;;;;;10.56;89.07;101819.66;5007417;28;20091;-92
2022/05/21 01:13:43;;;;;;;7.68;3.20;;;;;;;10.64;88.77;101817.59;5007197;28;20083;-90
2022/05/21 01:16:09;;;;;;;9.07;3.45;;;;;;;10.68;88.16;101814.78;4996477;28;20033;-90
2022/05/21 01:18:34;;;;;;;6.13;3.15;;;;;;;10.73;87.90;101812.81;5001856;28;20026;-91
2022/05/21 01:21:00;;;;;;;6.32;3.08;;;;;;;10.79;87.23;101811.75;5008167;28;20160;-92
2022/05/21 01:23:27;;;;;;;6.07;3.15;;;;;;;10.84;87.33;101819.56;5008461;28;20026;-91
2022/05/21 01:25:53;;;;;;;6.18;3.40;;;;;;;10.89;87.27;101818.47;5005224;28;20017;-93
2022/05/21 01:28:21;;;;;;;7.80;3.10;;;;;;;10.89;86.78;101809.59;5007979;28;20442;-94
2022/05/21 01:30:53;;;;;;;7.90;3.40;;;;;;;10.95;86.72;101820.91;5001226;28;20026;-93
2022/05/21 01:33:23;;;;;;;7.82;3.28;;;;;;;10.94;86.90;101805.84;5004609;28;20579;-91
2022/05/21 01:35:49;;;;;;;8.48;3.83;;;;;;;10.96;86.45;101803.13;4996311;28;20084;-91
2022/05/21 01:38:17;;;;;;;9.70;3.35;;;;;;;10.97;86.79;101816.38;5003347;28;20034;-93
2022/05/21 01:40:43;;;;;;;6.15;3.03;;;;;;;10.99;86.49;101813.66;5007174;28;20034;-93
2022/05/21 01:45:53;;;;;;;8.10;3.63;;;;;;;11.03;86.32;101812.59;5003236;28;20037;-92
2022/05/21 01:48:21;;;;;;;9.63;3.58;;;;;;;11.06;86.35;101808.97;5004986;28;20033;-92
2022/05/21 01:50:47;;;;;;;5.97;3.75;;;;;;;11.03;86.61;101801.94;5005288;28;20036;-90
2022/05/21 01:53:13;;;;;;;7.47;3.60;;;;;;;11.09;86.48;101803.53;5006765;28;20029;-90
2022/05/21 01:55:38;;;;;;;8.07;3.60;;;;;;;11.09;86.54;101811.53;5003313;28;20116;-89
2022/05/21 01:58:04;;;;;;;7.38;3.70;;;;;;;11.10;86.29;101811.47;5004573;28;20221;-89
2022/05/21 02:00:29;;;;;;;6.15;3.25;;;;;;;11.06;86.43;101808.97;5004495;28;20346;-91
2022/05/21 02:02:55;;;;;;;11.48;3.22;;;;;;;11.12;86.21;101814.97;5004923;28;20034;-90
2022/05/21 02:05:20;;;;;;;9.32;3.40;;;;;;;11.08;86.12;101802.69;5008086;28;20379;-91
2022/05/21 02:07:45;;;;;;;10.02;3.33;;;;;;;11.10;86.21;101810.59;5012251;28;20058;-92
2022/05/21 02:10:11;;;;;;;5.13;3.08;;;;;;;11.12;86.15;101817.63;5005105;28;20041;-90
2022/05/21 02:12:36;;;;;;;7.60;3.50;;;;;;;11.12;86.53;101814.97;5008458;28;20495;-94
2022/05/21 02:15:03;;;;;;;8.32;3.60;;;;;;;11.12;85.90;101811.41;5009084;28;20070;-90
2022/05/21 02:17:28;;;;;;;8.65;3.20;;;;;;;11.14;86.38;101820.22;5006281;28;20021;-91
2022/05/21 02:19:53;;;;;;;8.57;3.33;;;;;;;11.13;86.54;101811.34;5006115;28;20293;-91
2022/05/21 02:22:19;;;;;;;6.32;2.83;;;;;;;11.17;86.01;101812.13;5007462;28;20025;-92
2022/05/21 02:24:44;;;;;;;8.10;3.40;;;;;;;11.19;85.72;101821.78;5001644;28;20080;-92
2022/05/21 02:27:11;;;;;;;9.93;3.65;;;;;;;11.14;85.85;101817.56;5003034;28;20087;-91
2022/05/21 02:29:37;;;;;;;8.93;3.50;;;;;;;11.16;86.14;101823.69;4998922;28;20050;-89
2022/05/21 02:32:04;;;;;;;12.15;3.40;;;;;;;11.16;85.97;101821.00;5002392;28;20493;-92
2022/05/21 02:34:30;;;;;;;6.50;3.25;;;;;;;11.16;85.84;101821.00;5005648;28;20088;-91
2022/05/21 02:39:39;;;;;;;11.07;3.88;;;;;;;11.10;85.84;101799.94;4998870;28;20081;-91
2022/05/21 02:42:42;;;;;;;9.63;4.13;;;;;;;11.15;86.08;101811.28;5004660;28;20065;-92
2022/05/21 02:44:50;;;;;;;8.30;3.67;;;;;;;11.12;86.57;101814.06;4998916;28;20351;-90
2022/05/21 02:47:16;;;;;;;7.25;3.20;;;;;;;11.13;85.91;101815.81;5005979;28;20391;-91
2022/05/21 02:49:41;;;;;;;7.22;3.30;;;;;;;11.10;86.05;101814.13;5008190;28;21350;-89
2022/05/21 02:52:06;;;;;;;7.65;3.72;;;;;;;11.07;86.77;101816.91;5019300;28;20049;-88
2022/05/21 02:54:31;;;;;;;9.70;3.97;;;;;;;11.05;87.17;101815.25;5015318;28;20049;-91
2022/05/21 02:56:57;;;;;;;7.93;4.07;;;;;;;11.07;87.06;101816.03;5011247;28;20100;-91
2022/05/21 02:59:22;;;;;;;11.10;4.10;;;;;;;11.08;86.37;101817.78;5007582;28;20691;-90
2022/05/21 03:01:47;;;;;;;9.00;4.43;;;;;;;11.08;86.31;101809.81;5003075;28;20070;-88
2022/05/21 03:04:13;;;;;;;9.98;4.10;;;;;;;11.07;86.74;101818.69;5001306;28;21792;-90
2022/05/21 03:06:38;;;;;;;13.32;4.30;;;;;;;11.10;86.65;101823.91;5005390;28;20044;-91
2022/05/21 03:11:48;;;;;;;11.02;4.35;;;;;;;11.09;86.67;101824.84;5000608;28;20510;-92
2022/05/21 03:14:13;;;;;;;8.10;4.40;;;;;;;11.12;86.62;101830.94;4999269;28;20022;-93
2022/05/21 03:16:38;;;;;;;11.63;4.70;;;;;;;11.10;86.82;101824.78;5001839;28;20029;-90
2022/05/21 03:19:03;;;;;;;13.38;4.47;;;;;;;11.12;86.82;101828.28;4999431;28;20029;-91
2022/05/21 03:21:29;;;;;;;12.90;5.38;;;;;;;11.10;86.72;101819.47;5004498;28;20026;-91
2022/05/21 03:23:55;;;;;;;14.68;5.45;;;;;;;11.10;86.91;101815.94;5002368;28;20168;-90
2022/05/21 03:26:20;;;;;;;12.43;5.05;;;;;;;11.08;86.88;101810.66;5005208;28;20487;-91
2022/05/21 03:28:45;;;;;;;11.18;4.93;;;;;;;11.09;86.71;101815.06;5001258;28;20407;-91
2022/05/21 03:31:11;;;;;;;11.27;5.90;;;;;;;11.10;86.93;101822.13;5005404;28;20018;-91
2022/05/21 03:33:36;;;;;;;11.05;5.30;;;;;;;11.07;87.05;101811.56;5004639;28;20022;-91
2022/05/21 03:36:02;;;;;;;11.85;5.55;;;;;;;11.11;86.75;101815.84;5004406;28;20030;-92
2022/05/21 03:38:27;;;;;;;10.82;5.25;;;;;;;11.11;87.32;101817.66;5000816;28;20038;-91
2022/05/21 03:40:52;;;;;;;9.35;4.93;;;;;;;11.10;87.21;101821.25;5005481;28;20026;-90
2022/05/21 03:43:18;;;;;;;10.40;5.05;;;;;;;11.07;87.57;101813.38;5007051;28;20475;-92
2022/05/21 03:45:43;;;;;;;11.20;5.15;;;;;;;11.07;87.32;101814.22;5003187;28;20022;-90
2022/05/21 03:48:08;;;;;;;13.80;5.82;;;;;;;11.06;86.92;101820.50;5006716;28;20169;-91
2022/05/21 03:50:34;;;;;;;16.02;5.57;;;;;;;11.05;87.11;101821.44;5006426;28;20137;-92
2022/05/21 03:53:00;;;;;;;13.27;5.85;;;;;;;11.00;87.17;101825.19;5005151;28;20033;-90
2022/05/21 03:55:26;;;;;;;12.57;5.97;;;;;;;11.00;86.91;101820.75;5009414;28;20506;-91
2022/05/21 03:57:51;;;;;;;13.90;5.60;;;;;;;11.03;87.49;101830.41;5005520;28;20030;-90
2022/05/21 04:00:19;;;;;;;11.82;5.00;;;;;;;11.00;87.34;101830.53;5006512;28;20030;-93
2022/05/21 04:02:44;;;;;;;13.10;5.80;;;;;;;11.03;87.23;101835.72;5008867;28;20038;-91
2022/05/21 04:05:12;;;;;;;10.50;5.38;;;;;;;11.02;87.50;101834.00;5008699;28;20036;-92
2022/05/21 04:07:39;;;;;;;14.45;5.88;;;;;;;10.97;87.46;101834.16;5010590;28;20079;-92
2022/05/21 04:10:06;;;;;;;11.15;5.28;;;;;;;11.01;87.30;101837.59;5007674;28;20076;-94
2022/05/21 04:12:31;;;;;;;10.65;4.82;;;;;;;11.00;87.47;101834.06;5002569;28;20510;-91
2022/05/21 04:14:56;;;;;;;12.98;5.25;;;;;;;11.01;87.36;101846.44;5006836;28;20487;-91
2022/05/21 04:17:21;;;;;;;12.60;4.93;;;;;;;10.99;87.51;101845.63;5006901;28;20500;-91
2022/05/21 04:19:47;;;;;;;11.80;5.20;;;;;;;10.95;87.63;101836.91;5011414;28;20091;-92
2022/05/21 04:22:12;;;;;;;13.68;5.60;;;;;;;10.97;87.29;101851.00;5005843;28;20041;-91
2022/05/21 04:24:38;;;;;;;9.10;5.22;;;;;;;10.93;87.76;101840.53;5008179;28;20329;-92
2022/05/21 04:27:04;;;;;;;10.90;4.95;;;;;;;10.97;87.85;101850.16;5007739;28;20029;-93
2022/05/21 04:29:29;;;;;;;12.73;5.18;;;;;;;10.97;87.70;101848.34;5006411;28;20056;-90
2022/05/21 04:31:54;;;;;;;12.50;5.97;;;;;;;11.04;87.71;101858.78;5003015;28;20053;-92
2022/05/21 04:34:19;;;;;;;14.93;6.20;;;;;;;11.06;87.37;101857.78;5003568;28;20033;-91
2022/05/21 04:36:45;;;;;;;14.98;5.80;;;;;;;11.06;87.59;101862.25;5001365;28;20029;-92
2022/05/21 04:39:10;;;;;;;15.98;6.18;;;;;;;11.11;87.71;101860.28;5005591;28;20030;-93
2022/05/21 04:41:36;;;;;;;14.23;7.28;;;;;;;11.14;87.22;101861.06;5003951;28;20132;-93
2022/05/21 04:44:02;;;;;;;17.88;7.28;;;;;;;11.16;87.48;101863.66;5006850;28;20052;-92
2022/05/21 04:46:28;;;;;;;14.23;6.75;;;;;;;11.19;87.20;101863.53;5004406;28;20030;-90
2022/05/21 04:48:53;;;;;;;13.40;7.40;;;;;;;11.21;86.93;101867.91;5005395;28;20049;-93
2022/05/21 04:51:19;;;;;;;16.77;7.25;;;;;;;11.22;86.63;101874.09;5008928;28;20025;-92
2022/05/21 04:53:44;;;;;;;19.30;7.75;;;;;;;11.21;86.99;101873.22;4983296;28;20045;-94
2022/05/21 04:56:10;;;;;;;15.77;8.07;;;;;;;11.26;87.12;101875.72;4998752;28;20471;-91
2022/05/21 04:58:35;;;;;;;19.92;8.85;;;;;;;11.25;87.05;101871.31;5006585;28;20468;-93
2022/05/21 05:01:02;;;;;;;16.77;9.30;;;;;;;11.33;86.88;101881.66;5003195;28;20117;-91
2022/05/21 05:03:27;;;;;;;15.00;7.72;;;;;;;11.38;87.15;101877.06;5007442;28;20029;-90
2022/05/21 05:05:52;;;;;;;15.43;8.00;;;;;;;11.39;86.91;101874.31;5002082;28;20110;-91
2022/05/21 05:08:19;;;;;;;17.70;8.40;;;;;;;11.40;86.36;101884.06;5001226;28;20042;-92
2022/05/21 05:10:46;;;;;;;15.25;7.72;;;;;;;11.37;86.54;101876.19;5002998;28;20038;-87
2022/05/21 05:13:13;;;;;;;18.98;7.93;;;;;;;11.45;86.71;101886.53;5003603;28;20022;-91
2022/05/21 05:15:38;;;;;;;17.15;8.07;;;;;;;11.49;86.48;101888.16;5006007;28;20104;-87
2022/05/21 05:18:11;;;;;;;17.70;7.82;;;;;;;11.53;86.43;101888.94;4997175;28;20038;-89
2022/05/21 05:20:37;;;;;;;23.50;9.27;;;;;;;11.49;85.89;101888.16;5001383;28;20113;-89
2022/05/21 05:23:04;;;;;;;15.95;8.80;;;;;;;11.46;86.70;101890.97;5003692;28;20109;-88
2022/05/21 05:25:30;;;;;;;21.45;9.48;;;;;;;11.45;87.25;101891.88;5006629;28;20514;-88
2022/05/21 05:27:56;;;;;;;17.10;8.82;;;;;;;11.56;86.82;101894.16;5003716;28;20419;-88
2022/05/21 05:30:23;;;;;;;18.45;8.50;;;;;;;11.64;86.17;101902.72;5004153;28;20030;-88
2022/05/21 05:32:48;;;;;;;17.23;8.18;;;;;;;11.68;86.18;101891.00;5005925;28;20493;-88
2022/05/21 05:35:14;;;;;;;16.98;8.05;;;;;;;11.80;85.22;101897.66;5008310;28;20037;-89
2022/05/21 05:37:40;;;;;;;16.98;8.57;;;;;;;11.86;85.13;101900.97;5001557;28;20053;-90
2022/05/21 05:40:08;;;;;;;17.30;8.95;;;;;;;11.88;84.97;101901.81;5004577;28;20064;-89
2022/05/21 05:42:35;;;;;;;18.95;9.05;;;;;;;11.95;84.56;101913.09;5003788;28;20029;-89
2022/05/21 05:45:01;;;;;;;17.08;8.85;;;;;;;11.98;84.66;101904.97;5003445;28;20558;-89
2022/05/21 05:47:27;;;;;;;24.80;9.77;;;;;;;12.05;84.20;101905.59;5004943;28;20033;-90
2022/05/21 05:49:53;;;;;;;22.67;10.60;;;;;;;12.10;84.32;101906.28;5000344;28;20036;-90
2022/05/21 05:52:18;;;;;;;16.30;9.80;;;;;;;12.09;84.31;101902.75;4997811;28;20026;-90
2022/05/21 05:54:43;;;;;;;20.90;11.55;;;;;;;12.15;84.00;101901.63;5002796;28;20125;-89
2022/05/21 05:57:10;;;;;;;24.05;11.30;;;;;;;12.23;84.08;101904.00;5002142;28;20033;-92
2022/05/21 05:59:48;;;;;;;21.85;11.65;;;;;;;12.33;83.63;101900.00;5000110;28;20030;-88
2022/05/21 06:04:59;;;;;;;27.23;13.60;;;;;;;12.29;83.30;101912.63;5006707;28;20045;-88
2022/05/21 06:07:25;;;;;;;23.25;11.90;;;;;;;12.23;83.99;101912.84;5005383;28;20037;-88
2022/05/21 06:09:50;;;;;;;22.17;12.98;;;;;;;12.29;83.10;101915.28;5004128;28;20029;-88
2022/05/21 06:12:16;;;;;;;30.17;14.20;;;;;;;12.35;83.68;101911.50;4994543;28;20041;-88
2022/05/21 06:14:41;;;;;;;25.58;13.60;;;;;;;12.41;83.20;101906.75;4995817;28;20552;-88
2022/05/21 06:17:08;;;;;;;29.48;13.55;;;;;;;12.52;83.26;101913.47;5005536;28;20040;-89
2022/05/21 06:19:34;;;;;;;25.73;13.18;;;;;;;12.45;83.11;101911.03;5003892;28;20052;-89
2022/05/21 06:22:02;;;;;;;29.80;13.15;;;;;;;12.45;83.11;101905.69;5006935;28;20017;-88
2022/05/21 06:24:27;;;;;;;24.65;13.48;;;;;;;12.59;83.04;101921.16;5004564;28;20030;-88
2022/05/21 06:26:53;;;;;;;25.42;13.23;;;;;;;12.66;82.15;101927.94;5002914;28;20061;-89
2022/05/21 06:29:18;;;;;;;26.13;12.90;;;;;;;12.72;82.51;101926.84;5006314;28;20104;-88
2022/05/21 06:31:43;;;;;;;23.70;13.80;;;;;;;12.78;82.07;101937.25;5006079;28;20033;-88
2022/05/21 06:34:09;;;;;;;24.88;13.52;;;;;;;12.75;80.72;101921.38;5009117;28;20030;-88
2022/05/21 06:36:34;;;;;;;26.95;13.55;;;;;;;12.76;81.17;101932.94;5001666;28;20034;-87
2022/05/21 06:38:59;;;;;;;28.45;13.65;;;;;;;12.82;81.48;101933.50;4991339;28;20058;-87
2022/05/21 06:41:28;;;;;;;24.20;13.65;;;;;;;12.98;80.96;101943.56;5006015;28;20057;-88
2022/05/21 06:43:54;;;;;;;26.35;13.85;;;;;;;13.09;80.52;101941.28;5007134;28;20034;-87
2022/05/21 06:46:19;;;;;;;26.50;14.07;;;;;;;13.17;80.13;101934.69;5006794;28;20033;-89
2022/05/21 06:48:44;;;;;;;28.95;14.27;;;;;;;13.29;80.41;101943.97;5006828;28;20033;-88
2022/05/21 06:51:10;;;;;;;31.38;15.13;;;;;;;13.28;79.77;101942.22;5007195;28;20030;-87
2022/05/21 06:53:36;;;;;;;30.38;14.73;;;;;;;13.55;78.85;101941.94;4989939;28;20050;-89
2022/05/21 06:56:10;;;;;;;30.48;15.25;;;;;;;13.67;78.69;101939.56;5004710;28;20072;-87
2022/05/21 06:58:35;;;;;;;28.42;14.80;;;;;;;13.76;78.47;101948.09;4997990;28;20037;-87
2022/05/21 07:01:00;;;;;;;26.23;15.52;;;;;;;13.81;77.83;101946.06;5006986;28;20018;-87
2022/05/21 07:03:26;;;;;;;24.90;14.07;;;;;;;13.87;76.28;101945.78;5002166;28;20029;-87
2022/05/21 07:08:36;;;;;;;24.80;13.85;;;;;;;14.03;75.80;101949.47;5003318;28;20471;-82
2022/05/21 07:11:01;;;;;;;29.17;15.10;;;;;;;14.12;76.47;101961.53;5001436;28;20505;-90
2022/05/21 07:13:28;;;;;;;24.33;13.90;;;;;;;14.39;74.45;101944.16;4998483;28;20026;-86
2022/05/21 07:15:54;;;;;;;24.05;14.13;;;;;;;14.61;74.25;101948.47;5002925;28;20391;-86
2022/05/21 07:18:21;;;;;;;21.90;12.95;;;;;;;14.68;73.02;101964.16;4998437;28;20010;-86
2022/05/21 07:20:48;;;;;;;28.83;13.45;;;;;;;14.64;73.58;101964.41;5002323;28;20298;-86
2022/05/21 07:23:13;;;;;;;24.70;13.20;;;;;;;14.56;73.06;101969.25;5006059;28;20061;-86
2022/05/21 07:25:40;;;;;;;25.83;13.68;;;;;;;14.52;73.68;101973.91;4993050;28;20107;-89
2022/05/21 07:28:07;;;;;;;22.13;13.88;;;;;;;14.45;73.90;101967.06;5000444;28;20049;-87
2022/05/21 07:30:33;;;;;;;26.90;14.93;;;;;;;14.39;73.62;101983.47;4988719;28;20049;-88
2022/05/21 07:32:58;;;;;;;25.20;14.48;;;;;;;14.40;73.28;101975.34;5002290;28;20088;-87
2022/05/21 07:35:25;;;;;;;26.23;14.93;;;;;;;14.51;73.05;101984.72;5003711;28;20034;-88
2022/05/21 07:37:51;;;;;;;27.45;14.27;;;;;;;14.67;73.33;101980.28;5003428;28;20072;-88
2022/05/21 07:40:19;;;;;;;31.45;16.00;;;;;;;14.73;72.86;101976.47;5010672;28;20034;-87
2022/05/21 07:42:44;;;;;;;23.42;14.23;;;;;;;14.77;72.63;101980.72;5001729;28;20030;-86
2022/05/21 07:45:13;;;;;;;25.27;15.63;;;;;;;14.75;71.56;101977.22;5004614;28;20026;-86
2022/05/21 07:47:39;;;;;;;25.23;14.90;;;;;;;14.73;71.25;101992.53;5004724;28;20040;-84
2022/05/21 07:50:05;;;;;;;23.15;15.65;;;;;;;14.66;71.54;101983.94;5007648;28;20398;-86
2022/05/21 07:52:31;;;;;;;27.42;14.57;;;;;;;14.61;70.30;101986.84;5007590;28;20026;-85
2022/05/21 07:54:56;;;;;;;23.92;14.38;;;;;;;14.75;71.17;101979.91;4998467;28;20042;-85
2022/05/21 07:57:22;;;;;;;25.58;14.50;;;;;;;14.88;69.95;101989.97;5009757;28;20025;-87
2022/05/21 07:59:47;;;;;;;24.67;14.13;;;;;;;14.87;69.47;101990.03;5001268;28;20030;-88
2022/05/21 08:02:17;;;;;;;25.35;14.13;;;;;;;14.77;70.01;101994.97;5007558;28;20391;-86
2022/05/21 08:04:47;;;;;;;24.30;13.27;;;;;;;14.65;70.63;101988.41;4997981;28;20022;-87
2022/05/21 08:07:13;;;;;;;27.05;13.70;;;;;;;14.71;70.92;101992.59;5003039;28;20044;-89
2022/05/21 08:09:39;;;;;;;26.25;13.32;;;;;;;14.80;71.23;101992.16;5006089;28;20026;-88
2022/05/21 08:12:11;;;;;;;20.50;12.93;;;;;;;14.91;70.81;101989.78;4992100;28;20022;-89
2022/05/21 08:14:36;;;;;;;21.90;12.23;;;;;;;14.90;69.37;101992.56;5005868;28;20026;-90
2022/05/21 08:17:02;;;;;;;22.17;12.82;;;;;;;15.00;69.69;101999.16;5008388;28;20029;-89
2022/05/21 08:19:27;;;;;;;21.65;11.32;;;;;;;15.15;69.00;102005.56;5010164;28;20025;-88
2022/05/21 08:21:52;;;;;;;21.38;11.13;;;;;;;15.13;68.05;102005.66;5009443;28;20080;-90
2022/05/21 08:27:02;;;;;;;23.00;12.38;;;;;;;17.18;63.32;102002.31;4996223;28;20396;-89
2022/05/21 08:29:31;;;;;;;20.08;10.25;;;;;;;18.63;58.82;102002.13;5006454;28;20046;-89
2022/05/21 08:31:58;;;;;;;17.63;11.00;;;;;;;19.34;55.81;101992.84;5007216;28;20233;-88
2022/05/21 08:34:25;;;;;;;16.67;9.50;;;;;;;20.00;53.99;101996.31;5008823;28;20376;-91
2022/05/21 08:36:50;;;;;;;16.55;9.18;;;;;;;20.57;52.59;102002.00;4996460;28;20068;-89
2022/05/21 08:39:16;;;;;;;15.35;9.48;;;;;;;20.57;50.42;101995.75;5004630;28;20018;-88
2022/05/21 08:42:20;;;;;;;15.02;9.05;;;;;;;20.14;52.95;101999.72;5009894;28;20030;-88
2022/05/21 08:44:49;;;;;;;14.52;8.68;;;;;;;19.88;51.87;102003.44;4935334;28;20485;-88
2022/05/21 08:47:20;;;;;;;16.73;9.63;;;;;;;19.04;54.57;102001.22;4936372;29;20051;-88
2022/05/21 08:49:53;;;;;;;16.70;9.48;;;;;;;19.59;53.78;101997.38;4933169;29;20062;-89
2022/05/21 08:52:30;;;;;;;20.73;10.05;;;;;;;20.72;52.29;101997.28;4941083;29;20564;-88
2022/05/21 08:54:58;;;;;;;18.33;9.57;;;;;;;21.87;48.71;102005.47;4929233;29;20545;-90
2022/05/21 08:57:43;;;;;;;17.00;9.52;;;;;;;22.68;49.42;102000.66;4945516;29;20469;-89
2022/05/21 09:00:22;;;;;;;15.85;9.57;;;;;;;21.36;47.40;101994.19;4933348;29;20127;-92
2022/05/21 09:02:47;;;;;;;16.13;9.35;;;;;;;19.62;50.45;101992.66;4930444;29;20187;-89
2022/05/21 09:05:16;;;;;;;18.35;10.48;;;;;;;18.56;54.57;102004.41;4927520;29;20127;-88
2022/05/21 09:07:58;;;;;;;21.15;11.07;;;;;;;18.08;57.03;101993.13;4944446;29;20031;-88
2022/05/21 09:10:43;;;;;;;21.85;10.57;;;;;;;19.10;55.60;101992.69;4929705;29;20371;-88
2022/05/21 09:13:20;;;;;;;17.30;10.30;;;;;;;20.81;52.02;101990.28;4927939;29;20044;-87
2022/05/21 09:18:31;;;;;;;14.90;9.27;;;;;;;20.34;50.29;101990.16;4968388;28;20080;-87
2022/05/21 09:21:10;;;;;;;13.55;9.43;;;;;;;19.06;52.59;101991.19;5008431;28;20051;-85
2022/05/21 09:23:51;;;;;;;15.75;9.85;;;;;;;18.08;55.23;101987.75;5005260;28;20088;-90
2022/05/21 09:26:18;;;;;;;14.65;9.20;;;;;;;17.47;56.78;101988.00;5006688;28;20069;-91
2022/05/21 09:28:44;;;;;;;14.02;9.00;;;;;;;17.17;58.00;101986.25;5003699;28;20050;-89
2022/05/21 09:31:11;;;;;;;12.57;8.95;;;;;;;17.05;57.53;101986.97;4992212;28;20022;-90
2022/05/21 09:33:45;;;;;;;17.40;9.30;;;;;;;17.05;57.37;101986.97;5007295;28;20045;-89
2022/05/21 09:36:30;;;;;;;13.25;8.25;;;;;;;18.00;55.78;101991.91;5000623;28;20037;-88
2022/05/21 09:38:55;;;;;;;13.90;8.10;;;;;;;20.49;50.76;101985.50;4993191;28;20044;-88
2022/05/21 09:41:29;;;;;;;15.63;7.60;;;;;;;21.84;45.82;101992.16;4990461;28;20425;-93
2022/05/21 09:47:15;;;;;;;13.13;7.30;;;;;;;24.28;41.78;101983.03;4998640;28;19948;-91
2022/05/21 09:49:42;;;;;;;15.50;7.10;;;;;;;25.10;39.72;101981.88;5004418;28;20045;-88
2022/05/21 09:52:20;;;;;;;15.65;7.40;;;;;;;26.55;39.98;101983.19;4993923;28;20026;-89
2022/05/21 09:54:46;;;;;;;14.65;8.15;;;;;;;26.29;36.30;101983.91;4997045;28;20276;-88
2022/05/21 09:57:37;;;;;;;14.88;8.35;;;;;;;24.11;41.08;101994.59;4992277;28;20081;-88
2022/05/21 10:00:30;;;;;;;14.88;8.57;;;;;;;22.06;45.06;101998.53;5008051;28;20033;-90
2022/05/21 10:03:02;;;;;;;16.05;8.27;;;;;;;20.37;46.51;101998.03;5006705;28;20319;-89
2022/05/21 10:05:44;;;;;;;10.82;7.03;;;;;;;19.29;48.02;102001.25;5004350;28;20609;-89
2022/05/21 10:11:25;;;;;;;14.38;8.45;;;;;;;19.21;50.31;102000.06;5004371;28;20499;-91
2022/05/21 10:13:56;;;;;;;13.70;9.52;;;;;;;19.84;48.79;101999.25;4991794;28;20038;-91
2022/05/21 10:16:37;;;;;;;14.68;9.93;;;;;;;20.20;49.42;102000.25;5005412;28;20032;-85
2022/05/21 10:19:38;;;;;;;16.60;10.77;;;;;;;20.17;49.54;102004.03;4996360;28;20093;-91
2022/05/21 10:22:29;;;;;;;18.55;10.80;;;;;;;19.59;50.57;101997.38;5002957;28;20096;-89
2022/05/21 10:25:21;;;;;;;17.17;10.27;;;;;;;20.16;48.72;101991.50;5002125;28;20073;-92
2022/05/21 10:28:06;;;;;;;17.60;9.20;;;;;;;20.86;47.65;102002.53;4993840;28;20121;-90
2022/05/21 10:30:42;;;;;;;15.55;8.43;;;;;;;21.37;45.80;101990.53;5000059;28;20025;-88
2022/05/21 10:33:32;;;;;;;12.80;7.40;;;;;;;21.97;42.06;101983.88;5008466;28;20038;-90
2022/05/21 10:36:16;;;;;;;11.63;7.30;;;;;;;21.73;43.38;101997.56;5000345;28;20624;-89
2022/05/21 10:38:53;;;;;;;12.15;7.40;;;;;;;20.77;45.06;101995.06;4989415;28;20117;-87
2022/05/21 10:41:46;;;;;;;12.07;7.90;;;;;;;19.87;47.53;101999.88;4999753;28;20034;-87
2022/05/21 10:44:27;;;;;;;15.93;8.50;;;;;;;18.89;49.63;102009.41;4992638;28;20018;-89
2022/05/21 10:47:10;;;;;;;12.65;9.18;;;;;;;18.67;51.10;102006.38;4997337;28;20050;-91
2022/05/21 10:49:38;;;;;;;16.75;9.77;;;;;;;18.77;51.36;102009.34;4999873;28;20403;-89
2022/05/21 10:52:22;;;;;;;16.92;9.82;;;;;;;19.38;50.33;102007.84;4991877;28;20263;-90
2022/05/21 10:55:17;;;;;;;11.35;8.70;;;;;;;21.48;47.24;102004.06;4998593;28;20459;-89
2022/05/21 10:57:54;;;;;;;17.17;9.68;;;;;;;22.88;42.22;101999.84;4990429;28;20518;-89
2022/05/21 11:00:28;;;;;;;12.82;9.88;;;;;;;24.22;40.20;101996.38;5000994;28;20058;-91
2022/05/21 11:03:17;;;;;;;16.83;9.10;;;;;;;25.67;38.52;102001.84;4992400;28;20027;-87
2022/05/21 11:05:50;;;;;;;15.35;8.88;;;;;;;26.72;37.22;102008.78;5002970;28;20105;-87
2022/05/21 11:08:31;;;;;;;;;;;;;;;26.38;38.47;102011.28;5004015;28;20385;-88
2022/05/21 11:11:16;;;;;;;11.95;6.88;;;;;;;25.04;37.51;102010.53;5004093;28;19924;-88
2022/05/21 11:13:55;;;;;;;13.45;6.45;;;;;;;24.02;37.77;102001.72;4999699;28;20121;-88
2022/05/21 11:16:35;;;;;;;12.98;7.30;;;;;;;23.87;39.93;102014.00;5003041;28;20077;-87
2022/05/21 11:19:19;;;;;;;8.95;6.80;;;;;;;22.83;40.39;102012.97;4998433;28;20029;-88
2022/05/21 11:21:51;;;;;;;11.23;6.40;;;;;;;23.74;39.16;102005.19;5008287;28;20379;-88
2022/05/21 11:24:31;;;;;;;9.23;6.00;;;;;;;25.32;36.98;101997.88;5009094;28;20030;-87
2022/05/21 11:27:10;;;;;;;9.05;6.22;;;;;;;26.07;35.30;102007.00;4997556;28;20066;-87
2022/05/21 11:29:47;;;;;;;9.88;5.78;;;;;;;28.16;33.18;102001.97;5007884;28;20060;-88
2022/05/21 11:37:58;;;;;;;9.43;5.63;;;;;;;29.14;28.33;101996.72;5004969;28;20093;-87
2022/05/21 11:40:49;;;;;;;10.18;5.03;;;;;;;30.20;30.12;102000.09;4999158;28;20025;-88
2022/05/21 11:43:16;;;;;;;7.97;3.80;;;;;;;31.22;26.08;102000.75;5004018;28;20557;-88
2022/05/21 11:45:58;;;;;;;8.07;4.55;;;;;;;29.45;28.18;101999.59;5002458;28;20495;-87
2022/05/21 11:48:28;;;;;;;9.43;5.70;;;;;;;26.24;31.89;102013.50;5006828;28;20383;-86
2022/05/21 11:51:18;;;;;;;11.45;6.20;;;;;;;24.80;36.89;102010.97;5008968;28;20032;-86
2022/05/21 11:53:45;;;;;;;10.00;5.78;;;;;;;25.23;34.44;101997.91;5005506;28;20125;-86
2022/05/21 11:56:12;;;;;;;10.05;6.25;;;;;;;26.86;33.17;102001.91;5005687;28;20037;-86
2022/05/21 11:58:59;;;;;;;9.48;6.25;;;;;;;28.29;31.68;101994.16;5008554;28;20061;-86
2022/05/21 12:01:36;;;;;;;8.38;5.82;;;;;;;29.46;29.40;102001.31;5008332;28;20034;-88